Time;durP1;ratioP1;P1;durP2;ratioP2;P2;SDS_P1;SDS_P2;PMS_P1;PMS_P2;Temp;Humidity;BMP_temperature;BMP_pressure;BME280_temperature;BME280_humidity;BME280_pressure;Samples;Min_cycle;Max_cycle;Signal;HPM_P1;HPM_P2
2021/10/13 00:01:10;;;;;;;11.68;8.83;;;8.20;99.90;;;;;;1924374;72;21140;-76
2021/10/13 00:03:36;;;;;;;12.20;8.58;;;8.20;99.90;;;;;;1919191;73;21127;-76
2021/10/13 00:06:02;;;;;;;12.05;8.43;;;8.30;99.90;;;;;;1930973;73;21143;-75
2021/10/13 00:08:28;;;;;;;10.18;8.18;;;8.30;99.90;;;;;;1934395;73;21131;-76
2021/10/13 00:10:54;;;;;;;10.60;7.85;;;8.30;99.90;;;;;;1932404;73;21067;-75
2021/10/13 00:13:21;;;;;;;12.50;8.18;;;8.40;99.90;;;;;;1941332;73;21074;-75
2021/10/13 00:15:47;;;;;;;9.78;8.10;;;8.40;99.90;;;;;;1933953;73;21057;-75
2021/10/13 00:18:13;;;;;;;11.18;7.85;;;8.40;99.90;;;;;;1931246;73;21544;-74
2021/10/13 00:20:39;;;;;;;9.65;7.00;;;8.40;99.90;;;;;;1930370;73;21457;-74
2021/10/13 00:23:05;;;;;;;10.35;7.65;;;8.40;99.90;;;;;;1926803;73;21142;-75
2021/10/13 00:25:31;;;;;;;9.48;7.28;;;8.40;99.90;;;;;;1947705;73;21249;-75
2021/10/13 00:27:57;;;;;;;9.15;6.92;;;8.40;99.90;;;;;;1938993;73;21123;-74
2021/10/13 00:30:23;;;;;;;9.33;6.72;;;8.40;99.90;;;;;;1940470;72;21123;-75
2021/10/13 00:32:50;;;;;;;11.25;8.33;;;8.30;99.90;;;;;;1931670;73;21065;-75
2021/10/13 00:35:16;;;;;;;7.85;6.33;;;8.30;99.90;;;;;;1945114;71;21057;-75
2021/10/13 00:37:42;;;;;;;8.75;7.12;;;8.30;99.90;;;;;;1937006;72;21066;-76
2021/10/13 00:40:08;;;;;;;7.65;6.37;;;8.30;99.90;;;;;;1934612;72;21209;-74
2021/10/13 00:42:34;;;;;;;6.53;5.95;;;8.30;99.90;;;;;;1938506;72;21025;-74
2021/10/13 00:45:00;;;;;;;8.85;7.22;;;8.20;99.90;;;;;;1941256;72;21138;-75
2021/10/13 00:47:26;;;;;;;8.70;6.83;;;8.10;99.90;;;;;;1933046;73;21138;-76
2021/10/13 00:49:52;;;;;;;8.28;6.62;;;8.10;99.90;;;;;;1941001;72;21151;-74
2021/10/13 00:52:18;;;;;;;10.05;6.95;;;8.10;99.90;;;;;;1918096;72;21064;-75
2021/10/13 00:54:45;;;;;;;9.65;7.05;;;8.00;99.90;;;;;;1932074;72;21045;-76
2021/10/13 00:57:11;;;;;;;8.90;6.15;;;8.00;99.90;;;;;;1939392;72;21470;-76
2021/10/13 00:59:37;;;;;;;9.65;6.58;;;8.00;99.90;;;;;;1938320;72;21449;-75
2021/10/13 01:02:03;;;;;;;10.35;6.20;;;8.10;99.90;;;;;;1946048;72;21434;-75
2021/10/13 01:04:29;;;;;;;6.28;5.65;;;8.00;99.90;;;;;;1945478;73;21069;-75
2021/10/13 01:06:55;;;;;;;6.55;5.95;;;8.00;99.90;;;;;;1940677;73;21069;-74
2021/10/13 01:09:21;;;;;;;9.73;5.53;;;8.00;99.90;;;;;;1946196;71;21066;-75
2021/10/13 01:11:47;;;;;;;7.65;5.92;;;8.00;99.90;;;;;;1932400;72;21131;-74
2021/10/13 01:14:15;;;;;;;8.45;6.33;;;8.00;99.90;;;;;;1944268;72;21182;-74
2021/10/13 01:16:43;;;;;;;6.53;5.92;;;8.10;99.90;;;;;;1934613;72;21125;-74
2021/10/13 01:19:09;;;;;;;12.05;6.17;;;8.00;99.90;;;;;;1948708;72;21234;-75
2021/10/13 01:21:35;;;;;;;8.90;6.45;;;7.90;99.90;;;;;;1944905;72;21613;-75
2021/10/13 01:24:01;;;;;;;7.37;5.95;;;8.00;99.90;;;;;;1943251;71;21520;-75
2021/10/13 01:26:28;;;;;;;12.60;6.53;;;8.00;99.90;;;;;;1944009;72;21518;-75
2021/10/13 01:28:54;;;;;;;6.87;5.47;;;8.00;99.90;;;;;;1932116;72;21473;-75
2021/10/13 01:31:20;;;;;;;8.10;5.78;;;8.00;99.90;;;;;;1938876;71;21066;-75
2021/10/13 01:33:46;;;;;;;6.72;6.00;;;8.00;99.90;;;;;;1949469;73;21057;-74
2021/10/13 01:36:12;;;;;;;16.32;6.58;;;7.90;99.90;;;;;;1937775;71;21030;-75
2021/10/13 01:38:38;;;;;;;7.60;5.85;;;8.00;99.90;;;;;;1956882;72;21061;-76
2021/10/13 01:41:04;;;;;;;6.83;5.83;;;8.00;99.90;;;;;;1935891;73;21053;-76
2021/10/13 01:43:30;;;;;;;8.38;6.65;;;8.00;99.90;;;;;;1940811;72;21129;-75
2021/10/13 01:45:57;;;;;;;8.20;6.00;;;8.00;99.90;;;;;;1945102;72;21123;-75
2021/10/13 01:48:23;;;;;;;12.65;6.03;;;7.90;99.90;;;;;;1930720;72;21065;-76
2021/10/13 01:50:49;;;;;;;7.72;6.75;;;7.90;99.90;;;;;;1951564;72;21064;-75
2021/10/13 01:53:15;;;;;;;10.38;7.12;;;7.90;99.90;;;;;;1944356;73;21045;-75
2021/10/13 01:55:41;;;;;;;11.25;6.85;;;8.00;99.90;;;;;;1934734;72;21127;-75
2021/10/13 01:58:07;;;;;;;11.53;7.80;;;8.00;99.90;;;;;;1941102;72;21142;-74
2021/10/13 02:00:33;;;;;;;7.87;7.05;;;8.00;99.90;;;;;;1941530;73;21047;-76
2021/10/13 02:02:59;;;;;;;11.22;7.67;;;8.00;99.90;;;;;;1937038;71;21065;-75
2021/10/13 02:05:26;;;;;;;11.83;7.70;;;8.00;99.90;;;;;;1931334;73;21517;-75
2021/10/13 02:07:52;;;;;;;10.18;8.53;;;8.00;99.90;;;;;;1941970;72;21539;-75
2021/10/13 02:10:18;;;;;;;19.00;8.60;;;7.90;99.90;;;;;;1932984;73;21460;-74
2021/10/13 02:12:46;;;;;;;12.07;9.13;;;7.90;99.90;;;;;;1946445;72;21427;-75
2021/10/13 02:15:12;;;;;;;22.80;9.55;;;7.90;99.90;;;;;;1944233;72;21184;-75
2021/10/13 02:17:38;;;;;;;10.95;8.98;;;7.80;99.90;;;;;;1931511;72;21134;-75
2021/10/13 02:20:04;;;;;;;11.53;9.63;;;7.80;99.90;;;;;;1942008;71;21078;-75
2021/10/13 02:22:30;;;;;;;11.95;9.20;;;7.90;99.90;;;;;;1945830;72;21542;-75
2021/10/13 02:24:56;;;;;;;14.18;10.48;;;7.80;99.90;;;;;;1950714;71;21567;-76
2021/10/13 02:27:22;;;;;;;16.75;9.75;;;7.90;99.90;;;;;;1943047;73;21525;-75
2021/10/13 02:29:48;;;;;;;11.73;9.03;;;7.80;99.90;;;;;;1944656;73;21473;-76
2021/10/13 02:32:15;;;;;;;11.60;8.75;;;7.90;99.90;;;;;;1928766;72;21151;-76
2021/10/13 02:34:41;;;;;;;16.15;9.43;;;7.90;99.90;;;;;;1937267;73;21087;-76
2021/10/13 02:37:07;;;;;;;15.72;9.33;;;7.90;99.90;;;;;;1944473;73;21126;-75
2021/10/13 02:39:33;;;;;;;16.25;9.50;;;7.90;99.90;;;;;;1938955;72;21123;-75
2021/10/13 02:41:59;;;;;;;16.97;9.03;;;7.80;99.90;;;;;;1933973;72;21147;-75
2021/10/13 02:44:25;;;;;;;15.60;8.38;;;7.90;99.90;;;;;;1954611;72;21163;-75
2021/10/13 02:46:51;;;;;;;12.35;8.65;;;7.90;99.90;;;;;;1935098;72;21030;-75
2021/10/13 02:49:17;;;;;;;10.93;8.75;;;7.90;99.90;;;;;;1940927;72;21135;-74
2021/10/13 02:51:44;;;;;;;11.15;8.68;;;7.90;99.90;;;;;;1936980;73;21199;-75
2021/10/13 02:54:10;;;;;;;13.88;8.10;;;7.90;99.90;;;;;;1933195;72;21122;-75
2021/10/13 02:56:36;;;;;;;17.52;8.80;;;7.90;99.90;;;;;;1940394;72;21186;-74
2021/10/13 02:59:02;;;;;;;12.53;9.23;;;7.90;99.90;;;;;;1936391;72;21033;-75
2021/10/13 03:01:28;;;;;;;11.45;8.83;;;7.80;99.90;;;;;;1938043;72;21069;-75
2021/10/13 03:03:57;;;;;;;12.78;9.08;;;7.90;99.90;;;;;;1938417;72;21114;-76
2021/10/13 03:06:22;;;;;;;13.48;8.65;;;7.90;99.90;;;;;;1937499;73;21631;-76
2021/10/13 03:08:49;;;;;;;10.90;7.65;;;7.90;99.90;;;;;;1945035;72;21532;-76
2021/10/13 03:11:15;;;;;;;12.95;9.23;;;7.90;99.90;;;;;;1947177;71;21435;-75
2021/10/13 03:13:41;;;;;;;9.68;8.55;;;7.90;99.90;;;;;;1940994;72;21533;-76
2021/10/13 03:16:07;;;;;;;14.20;8.83;;;7.90;99.90;;;;;;1944889;73;21070;-75
2021/10/13 03:18:35;;;;;;;16.27;8.33;;;7.80;99.90;;;;;;1940464;72;21062;-75
2021/10/13 03:21:01;;;;;;;13.68;8.78;;;7.80;99.90;;;;;;1944230;72;21239;-75
2021/10/13 03:23:27;;;;;;;10.88;8.13;;;7.80;99.90;;;;;;1945400;72;21798;-75
2021/10/13 03:25:54;;;;;;;11.57;8.93;;;7.80;99.90;;;;;;1943150;73;21065;-74
2021/10/13 03:28:20;;;;;;;11.08;8.65;;;7.80;99.90;;;;;;1946957;72;21116;-75
2021/10/13 03:30:46;;;;;;;9.93;8.15;;;7.90;99.90;;;;;;1948649;71;21049;-75
2021/10/13 03:33:12;;;;;;;16.52;8.50;;;7.90;99.90;;;;;;1943237;72;21145;-75
2021/10/13 03:35:38;;;;;;;11.90;8.10;;;7.90;99.90;;;;;;1938963;71;21030;-75
2021/10/13 03:38:04;;;;;;;11.45;8.13;;;8.00;99.90;;;;;;1935678;73;21069;-74
2021/10/13 03:40:30;;;;;;;13.08;8.53;;;7.90;99.90;;;;;;1939537;72;21314;-74
2021/10/13 03:42:56;;;;;;;12.28;8.65;;;7.90;99.90;;;;;;1940578;72;21077;-74
2021/10/13 03:45:23;;;;;;;11.40;8.58;;;7.90;99.90;;;;;;1933700;73;21056;-76
2021/10/13 03:47:49;;;;;;;14.13;8.53;;;7.90;99.90;;;;;;1937367;72;21027;-75
2021/10/13 03:50:15;;;;;;;13.32;8.65;;;7.90;99.90;;;;;;1942423;72;21143;-76
2021/10/13 03:52:43;;;;;;;10.82;8.25;;;8.00;99.90;;;;;;1951082;72;21465;-75
2021/10/13 03:55:09;;;;;;;12.85;8.78;;;8.00;99.90;;;;;;1938274;72;21186;-75
2021/10/13 03:57:35;;;;;;;11.88;8.73;;;8.00;99.90;;;;;;1935970;72;21072;-75
2021/10/13 04:00:01;;;;;;;11.55;8.25;;;7.90;99.90;;;;;;1939039;72;21146;-75
2021/10/13 04:02:27;;;;;;;9.85;7.97;;;8.00;99.90;;;;;;1935498;72;21069;-74
2021/10/13 04:04:53;;;;;;;12.18;8.58;;;8.00;99.90;;;;;;1922736;72;21075;-75
2021/10/13 04:07:19;;;;;;;9.30;7.75;;;8.00;99.90;;;;;;1938665;72;21589;-75
2021/10/13 04:09:46;;;;;;;9.95;8.10;;;7.90;99.90;;;;;;1946881;72;21458;-75
2021/10/13 04:12:12;;;;;;;11.65;8.38;;;7.80;99.90;;;;;;1943871;72;21147;-75
2021/10/13 04:14:38;;;;;;;12.45;8.25;;;7.80;99.90;;;;;;1941810;71;21030;-75
2021/10/13 04:17:04;;;;;;;10.98;8.40;;;7.70;99.90;;;;;;1939815;72;21130;-75
2021/10/13 04:19:30;;;;;;;18.40;8.58;;;7.60;99.90;;;;;;1937056;72;21128;-74
2021/10/13 04:21:56;;;;;;;12.60;8.98;;;7.60;99.90;;;;;;1932678;72;21132;-74
2021/10/13 04:24:22;;;;;;;11.00;7.95;;;7.50;99.90;;;;;;1945430;72;21069;-74
2021/10/13 04:26:48;;;;;;;14.75;9.13;;;7.50;99.90;;;;;;1939835;72;21134;-75
2021/10/13 04:29:14;;;;;;;14.83;9.78;;;7.40;99.90;;;;;;1942982;72;21073;-75
2021/10/13 04:31:41;;;;;;;15.28;9.93;;;7.30;99.90;;;;;;1940404;73;21135;-74
2021/10/13 04:34:07;;;;;;;12.82;9.95;;;7.30;99.90;;;;;;1941097;73;21073;-75
2021/10/13 04:36:33;;;;;;;17.37;10.48;;;7.30;99.90;;;;;;1932212;72;21029;-74
2021/10/13 04:38:59;;;;;;;16.37;11.28;;;7.30;99.90;;;;;;1937161;72;21470;-75
2021/10/13 04:41:25;;;;;;;12.20;10.10;;;7.40;99.90;;;;;;1949348;72;21673;-74
2021/10/13 04:43:51;;;;;;;10.43;9.33;;;7.40;99.90;;;;;;1946499;71;21527;-75
2021/10/13 04:46:17;;;;;;;17.17;10.08;;;7.40;99.90;;;;;;1946677;71;21462;-74
2021/10/13 04:48:43;;;;;;;15.03;11.03;;;7.50;99.90;;;;;;1936190;72;21548;-74
2021/10/13 04:51:10;;;;;;;15.23;10.90;;;7.50;99.90;;;;;;1938692;72;21189;-75
2021/10/13 04:53:36;;;;;;;14.80;9.90;;;7.50;99.90;;;;;;1939423;71;21170;-75
2021/10/13 04:56:02;;;;;;;19.90;10.80;;;7.50;99.90;;;;;;1938222;72;21046;-72
2021/10/13 04:58:28;;;;;;;11.97;10.30;;;7.40;99.90;;;;;;1939950;71;21152;-75
2021/10/13 05:00:54;;;;;;;18.00;10.48;;;7.40;99.90;;;;;;1940557;71;21076;-76
2021/10/13 05:03:20;;;;;;;15.25;10.23;;;7.40;99.90;;;;;;1943877;73;21057;-76
2021/10/13 05:05:46;;;;;;;19.52;10.38;;;7.30;99.90;;;;;;1941101;71;21073;-74
2021/10/13 05:08:14;;;;;;;15.70;10.28;;;7.20;99.90;;;;;;1943385;72;21035;-75
2021/10/13 05:10:40;;;;;;;12.60;9.45;;;7.10;99.90;;;;;;1945175;72;21139;-74
2021/10/13 05:13:08;;;;;;;15.95;10.30;;;7.10;99.90;;;;;;1953074;72;21131;-75
2021/10/13 05:15:34;;;;;;;15.28;9.43;;;7.00;99.90;;;;;;1940007;72;21070;-75
2021/10/13 05:18:00;;;;;;;13.00;9.78;;;7.00;99.90;;;;;;1936057;72;21122;-75
2021/10/13 05:20:26;;;;;;;12.47;9.35;;;7.00;99.90;;;;;;1944705;72;21193;-75
2021/10/13 05:22:52;;;;;;;14.78;9.93;;;7.00;99.90;;;;;;1940540;72;21196;-74
2021/10/13 05:25:18;;;;;;;14.35;10.40;;;6.90;99.90;;;;;;1940417;72;21064;-75
2021/10/13 05:27:44;;;;;;;16.42;10.98;;;7.00;99.90;;;;;;1945883;72;21205;-75
2021/10/13 05:30:11;;;;;;;12.07;10.25;;;7.00;99.90;;;;;;1936106;72;21077;-75
2021/10/13 05:32:37;;;;;;;14.18;11.00;;;7.00;99.90;;;;;;1935696;72;21680;-73
2021/10/13 05:35:03;;;;;;;18.85;11.75;;;7.10;99.90;;;;;;1939770;72;21533;-75
2021/10/13 05:37:29;;;;;;;17.98;11.25;;;7.10;99.90;;;;;;1934247;72;21468;-75
2021/10/13 05:39:55;;;;;;;17.07;10.93;;;7.10;99.90;;;;;;1945327;72;21472;-75
2021/10/13 05:42:21;;;;;;;20.32;11.40;;;7.10;99.90;;;;;;1940365;72;21534;-75
2021/10/13 05:44:49;;;;;;;17.62;10.53;;;7.10;99.90;;;;;;1936804;72;21272;-75
2021/10/13 05:47:15;;;;;;;17.30;12.58;;;7.10;99.90;;;;;;1945039;72;21146;-76
2021/10/13 05:49:42;;;;;;;24.05;12.55;;;7.10;99.90;;;;;;1951162;71;21060;-74
2021/10/13 05:52:08;;;;;;;21.42;13.10;;;7.20;99.90;;;;;;1939536;72;21047;-75
2021/10/13 05:54:34;;;;;;;20.92;13.25;;;7.20;99.90;;;;;;1944066;72;21122;-76
2021/10/13 05:57:00;;;;;;;19.20;12.50;;;7.30;99.90;;;;;;1937967;72;21062;-79
2021/10/13 05:59:28;;;;;;;16.90;12.05;;;7.20;99.90;;;;;;1951741;72;21077;-75
2021/10/13 06:01:54;;;;;;;22.30;13.22;;;7.30;99.90;;;;;;1947563;71;21147;-74
2021/10/13 06:04:20;;;;;;;16.37;12.68;;;7.40;99.90;;;;;;1934672;72;21136;-76
2021/10/13 06:06:46;;;;;;;22.15;13.50;;;7.40;99.90;;;;;;1945690;71;21140;-75
2021/10/13 06:09:12;;;;;;;18.37;12.63;;;7.40;99.90;;;;;;1937081;72;21068;-75
2021/10/13 06:11:38;;;;;;;21.75;14.15;;;7.50;99.90;;;;;;1943246;72;21064;-76
2021/10/13 06:14:05;;;;;;;19.42;13.15;;;7.50;99.90;;;;;;1944284;72;21066;-75
2021/10/13 06:16:31;;;;;;;19.05;12.85;;;7.50;99.90;;;;;;1939964;72;21057;-75
2021/10/13 06:18:57;;;;;;;18.25;12.50;;;7.50;99.90;;;;;;1952443;72;21315;-75
2021/10/13 06:21:24;;;;;;;19.25;12.43;;;7.60;99.90;;;;;;1939798;72;21073;-75
2021/10/13 06:23:50;;;;;;;20.70;12.15;;;7.60;99.90;;;;;;1936482;72;21070;-76
2021/10/13 06:26:17;;;;;;;22.58;12.53;;;7.60;99.90;;;;;;1936113;72;21102;-75
2021/10/13 06:28:43;;;;;;;17.60;12.60;;;7.70;99.90;;;;;;1937547;73;21221;-75
2021/10/13 06:31:09;;;;;;;17.17;12.23;;;7.80;99.90;;;;;;1941960;72;21066;-75
2021/10/13 06:33:36;;;;;;;18.87;12.20;;;7.80;99.90;;;;;;1941955;72;21066;-75
2021/10/13 06:36:03;;;;;;;18.40;12.63;;;7.90;99.90;;;;;;1937595;72;21510;-75
2021/10/13 06:38:29;;;;;;;16.90;11.48;;;8.00;99.90;;;;;;1951450;72;21451;-75
2021/10/13 06:40:55;;;;;;;20.70;12.93;;;8.10;99.90;;;;;;1936350;72;21061;-75
2021/10/13 06:43:21;;;;;;;25.05;12.65;;;8.10;99.90;;;;;;1949394;71;21127;-75
2021/10/13 06:45:47;;;;;;;19.30;12.80;;;8.10;99.90;;;;;;1934739;73;21064;-75
2021/10/13 06:48:13;;;;;;;14.75;11.28;;;8.20;99.90;;;;;;1934063;72;21108;-75
2021/10/13 06:50:39;;;;;;;17.32;11.83;;;8.10;99.90;;;;;;1936408;73;21069;-75
2021/10/13 06:53:05;;;;;;;15.05;11.20;;;8.20;99.90;;;;;;1942248;72;21135;-75
2021/10/13 06:55:31;;;;;;;15.70;11.50;;;8.20;99.90;;;;;;1936888;73;21074;-75
2021/10/13 06:57:58;;;;;;;18.57;12.60;;;8.20;99.90;;;;;;1938314;73;21034;-77
2021/10/13 07:00:24;;;;;;;14.73;11.30;;;8.20;99.90;;;;;;1943673;71;21135;-78
2021/10/13 07:02:50;;;;;;;15.18;11.53;;;8.20;99.90;;;;;;1936453;72;21132;-77
2021/10/13 07:05:17;;;;;;;14.00;10.15;;;8.20;99.90;;;;;;1942787;72;21049;-78
2021/10/13 07:07:43;;;;;;;17.73;10.90;;;8.30;99.90;;;;;;1941787;72;21920;-78
2021/10/13 07:10:09;;;;;;;13.10;9.20;;;8.20;99.90;;;;;;1947329;73;21193;-78
2021/10/13 07:12:36;;;;;;;13.40;8.68;;;8.30;99.90;;;;;;1956948;71;21061;-78
2021/10/13 07:15:02;;;;;;;12.82;8.88;;;8.40;99.90;;;;;;1952146;73;21424;-79
2021/10/13 07:17:29;;;;;;;13.43;9.10;;;8.40;99.90;;;;;;1941958;72;21641;-77
2021/10/13 07:19:55;;;;;;;15.88;9.20;;;8.60;99.90;;;;;;1937333;72;21542;-78
2021/10/13 07:22:21;;;;;;;12.45;8.38;;;8.70;99.90;;;;;;1951642;72;21157;-77
2021/10/13 07:24:48;;;;;;;16.65;8.90;;;8.60;99.90;;;;;;1948901;71;21066;-77
2021/10/13 07:27:14;;;;;;;12.40;8.13;;;8.60;99.90;;;;;;1950692;71;21070;-78
2021/10/13 07:29:43;;;;;;;11.88;7.37;;;8.70;99.90;;;;;;1959994;72;21172;-78
2021/10/13 07:32:08;;;;;;;11.18;8.40;;;8.80;99.90;;;;;;1959309;72;21114;-78
2021/10/13 07:34:34;;;;;;;20.32;8.80;;;9.00;99.90;;;;;;1944494;72;21068;-78
2021/10/13 07:37:00;;;;;;;8.43;6.65;;;9.10;99.90;;;;;;1948568;72;21121;-78
2021/10/13 07:39:26;;;;;;;9.70;7.03;;;9.30;99.90;;;;;;1944802;72;21152;-79
2021/10/13 07:41:52;;;;;;;13.28;7.70;;;9.50;99.90;;;;;;1948467;72;21034;-78
2021/10/13 07:44:18;;;;;;;13.70;8.03;;;9.40;99.90;;;;;;1946974;72;21482;-77
2021/10/13 07:46:44;;;;;;;10.08;7.92;;;9.70;99.90;;;;;;1949688;72;21495;-78
2021/10/13 07:49:10;;;;;;;11.93;8.25;;;9.70;99.90;;;;;;1951347;71;21454;-78
2021/10/13 07:51:39;;;;;;;13.85;8.80;;;9.90;99.90;;;;;;1950527;71;21082;-77
2021/10/13 07:54:05;;;;;;;14.00;8.43;;;9.90;99.90;;;;;;1951102;72;21128;-78
2021/10/13 07:56:34;;;;;;;18.02;8.63;;;10.00;99.90;;;;;;1952025;72;21281;-78
2021/10/13 07:59:00;;;;;;;12.30;8.30;;;10.10;99.90;;;;;;1944665;72;21026;-79
2021/10/13 08:01:27;;;;;;;18.60;8.53;;;9.70;99.90;;;;;;1952426;72;21074;-78
2021/10/13 08:03:55;;;;;;;15.60;7.15;;;9.80;99.90;;;;;;1954506;72;21465;-79
2021/10/13 08:06:21;;;;;;;13.93;7.28;;;9.90;99.90;;;;;;1952949;72;21147;-79
2021/10/13 08:08:47;;;;;;;8.00;6.22;;;10.00;99.90;;;;;;1938319;72;21481;-80
2021/10/13 08:11:13;;;;;;;11.03;6.55;;;10.00;99.90;;;;;;1949469;72;21152;-78
2021/10/13 08:13:39;;;;;;;10.63;6.53;;;9.80;99.90;;;;;;1946867;71;21132;-79
2021/10/13 08:16:06;;;;;;;13.98;6.28;;;9.80;99.90;;;;;;1956856;72;21066;-78
2021/10/13 08:18:32;;;;;;;11.80;6.10;;;9.80;99.90;;;;;;1951734;72;21144;-78
2021/10/13 08:20:59;;;;;;;7.83;5.17;;;9.80;99.90;;;;;;1945382;72;21083;-77
2021/10/13 08:23:27;;;;;;;11.08;5.42;;;10.00;99.90;;;;;;1956152;73;21064;-78
2021/10/13 08:25:55;;;;;;;11.38;5.35;;;10.10;99.90;;;;;;1950230;71;21172;-78
2021/10/13 08:28:20;;;;;;;14.18;6.40;;;10.40;99.90;;;;;;1940828;71;21035;-78
2021/10/13 08:30:47;;;;;;;8.95;5.20;;;10.20;99.90;;;;;;1949903;72;21116;-78
2021/10/13 08:33:13;;;;;;;9.68;5.00;;;10.70;99.90;;;;;;1953474;72;21559;-79
2021/10/13 08:35:39;;;;;;;8.70;4.90;;;11.00;99.90;;;;;;1950968;73;21414;-80
2021/10/13 08:38:05;;;;;;;9.23;5.10;;;11.30;99.90;;;;;;1946349;72;21457;-79
2021/10/13 08:40:31;;;;;;;9.10;4.85;;;11.30;99.90;;;;;;1945058;72;21489;-79
2021/10/13 08:42:57;;;;;;;10.58;4.70;;;11.50;99.90;;;;;;1956170;72;21184;-79
2021/10/13 08:45:23;;;;;;;10.10;4.50;;;11.90;99.90;;;;;;1954359;71;21045;-78
2021/10/13 08:47:49;;;;;;;7.78;4.33;;;11.70;99.90;;;;;;1939307;71;21119;-78
2021/10/13 08:50:16;;;;;;;8.88;4.60;;;11.50;99.90;;;;;;1950106;72;21063;-78
2021/10/13 08:52:42;;;;;;;5.60;3.85;;;11.60;99.90;;;;;;1952435;72;21063;-79
2021/10/13 08:55:08;;;;;;;5.87;3.80;;;11.80;99.90;;;;;;1955159;71;21174;-79
2021/10/13 08:57:34;;;;;;;13.32;3.87;;;12.10;99.90;;;;;;1955332;71;21529;-79
2021/10/13 09:00:00;;;;;;;3.83;2.87;;;12.00;99.90;;;;;;1952550;72;21441;-80
2021/10/13 09:02:27;;;;;;;6.67;3.90;;;11.60;99.90;;;;;;1943395;71;21529;-79
2021/10/13 09:04:53;;;;;;;6.53;2.83;;;11.50;99.90;;;;;;1926784;73;21443;-80
2021/10/13 09:07:19;;;;;;;6.17;3.30;;;11.40;99.90;;;;;;1957760;72;21434;-79
2021/10/13 09:09:46;;;;;;;5.08;3.37;;;11.40;99.90;;;;;;1945597;72;21131;-79
2021/10/13 09:12:12;;;;;;;11.28;3.33;;;11.10;99.90;;;;;;1944793;71;21072;-79
2021/10/13 09:14:38;;;;;;;8.88;3.50;;;11.20;99.90;;;;;;1944959;72;21069;-79
2021/10/13 09:17:10;;;;;;;6.33;4.58;;;11.30;99.90;;;;;;1945893;71;21197;-78
2021/10/13 09:19:34;;;;;;;11.65;4.70;;;11.10;99.90;;;;;;1953987;72;21532;-79
2021/10/13 09:22:01;;;;;;;10.82;5.05;;;11.00;99.90;;;;;;1930415;73;21050;-79
2021/10/13 09:24:29;;;;;;;13.75;4.42;;;11.50;99.90;;;;;;1942077;72;21074;-78
2021/10/13 09:26:55;;;;;;;5.75;3.40;;;11.80;99.90;;;;;;1953165;72;21148;-79
2021/10/13 09:29:26;;;;;;;7.72;4.10;;;11.60;99.90;;;;;;1944981;72;21482;-79
2021/10/13 09:31:53;;;;;;;6.60;3.22;;;11.40;99.90;;;;;;1950287;71;21115;-79
2021/10/13 09:34:19;;;;;;;6.10;3.62;;;11.60;99.90;;;;;;1948949;71;21083;-79
2021/10/13 09:36:47;;;;;;;9.38;3.83;;;11.60;99.90;;;;;;1946874;72;21097;-79
2021/10/13 09:39:13;;;;;;;11.00;3.80;;;11.60;99.90;;;;;;1950310;72;21121;-79
2021/10/13 09:41:39;;;;;;;8.93;4.17;;;11.90;99.90;;;;;;1955729;72;21156;-79
2021/10/13 09:44:05;;;;;;;4.78;3.75;;;12.30;99.90;;;;;;1943532;72;21155;-77
2021/10/13 09:46:31;;;;;;;10.40;4.22;;;12.50;99.90;;;;;;1924006;72;21195;-78
2021/10/13 09:48:57;;;;;;;6.03;3.70;;;12.40;99.90;;;;;;1959831;72;21123;-79
2021/10/13 09:51:24;;;;;;;9.08;4.05;;;11.80;99.90;;;;;;1956293;71;21193;-79
2021/10/13 09:53:50;;;;;;;8.28;4.10;;;11.30;99.90;;;;;;1953491;71;21086;-79
2021/10/13 09:56:16;;;;;;;11.63;4.97;;;11.20;99.90;;;;;;1955287;71;21192;-79
2021/10/13 09:58:43;;;;;;;9.45;4.83;;;11.10;99.90;;;;;;1940572;72;21058;-79
2021/10/13 10:01:09;;;;;;;9.08;4.53;;;11.10;99.90;;;;;;1948716;71;21154;-78
2021/10/13 10:03:36;;;;;;;8.35;4.60;;;11.30;99.90;;;;;;1953181;73;21199;-78
2021/10/13 10:06:02;;;;;;;6.62;3.58;;;11.70;99.90;;;;;;1946969;72;21069;-77
2021/10/13 10:08:28;;;;;;;5.87;3.58;;;12.00;99.90;;;;;;1953234;73;21139;-78
2021/10/13 10:10:54;;;;;;;3.52;1.90;;;11.50;99.90;;;;;;1944020;72;21058;-79
2021/10/13 10:13:20;;;;;;;3.72;1.70;;;11.50;99.90;;;;;;1940170;71;21073;-85
2021/10/13 10:15:46;;;;;;;4.47;1.72;;;11.70;99.90;;;;;;1943168;72;21148;-83
2021/10/13 10:18:12;;;;;;;2.22;1.60;;;12.00;99.90;;;;;;1957813;72;21553;-84
2021/10/13 10:20:38;;;;;;;3.30;1.90;;;12.60;99.90;;;;;;1952434;71;21067;-82
2021/10/13 10:23:05;;;;;;;3.30;1.45;;;13.00;99.90;;;;;;1941758;71;21470;-84
2021/10/13 10:25:31;;;;;;;2.60;1.40;;;12.80;99.90;;;;;;1942081;71;21490;-84
2021/10/13 10:27:57;;;;;;;3.90;1.75;;;12.60;99.90;;;;;;1953108;71;21443;-84
2021/10/13 10:30:24;;;;;;;6.53;2.52;;;13.00;99.90;;;;;;1951638;71;21519;-84
2021/10/13 10:32:50;;;;;;;5.03;2.80;;;13.80;99.90;;;;;;1959343;71;21077;-75
2021/10/13 10:35:16;;;;;;;3.33;1.80;;;14.00;99.90;;;;;;1943706;72;21066;-80
2021/10/13 10:37:43;;;;;;;3.37;1.80;;;14.00;99.90;;;;;;1945142;72;21073;-78
2021/10/13 10:40:09;;;;;;;3.40;1.80;;;14.30;99.90;;;;;;1953105;72;21079;-79
2021/10/13 10:42:35;;;;;;;4.35;1.95;;;14.50;99.90;;;;;;1960300;72;21065;-84
2021/10/13 10:45:01;;;;;;;2.25;1.25;;;13.80;99.90;;;;;;1947884;72;21061;-81
2021/10/13 10:47:27;;;;;;;1.65;1.20;;;13.40;99.90;;;;;;1944243;72;21460;-78
2021/10/13 10:49:54;;;;;;;6.55;2.08;;;13.40;99.90;;;;;;1956699;72;21464;-77
2021/10/13 10:52:20;;;;;;;6.42;1.72;;;13.40;99.90;;;;;;1945845;72;21225;-76
2021/10/13 11:00:06;;;;;;;4.35;1.42;;;14.80;99.90;;;;;;1944411;72;21214;-82
2021/10/13 11:02:32;;;;;;;4.08;1.40;;;14.70;99.90;;;;;;1996550;70;21466;-83
2021/10/13 11:04:58;;;;;;;2.50;1.37;;;15.00;99.90;;;;;;1987243;70;21433;-82
2021/10/13 11:07:24;;;;;;;3.02;1.57;;;15.10;99.90;;;;;;2000044;70;21465;-83
2021/10/13 11:09:51;;;;;;;4.58;1.57;;;14.10;99.90;;;;;;2011138;70;22067;-79
2021/10/13 11:12:17;;;;;;;3.02;1.60;;;13.50;99.90;;;;;;2012770;70;21563;-85
2021/10/13 11:14:43;;;;;;;5.92;2.12;;;13.30;99.90;;;;;;1992800;70;21411;-77
2021/10/13 11:17:09;;;;;;;7.22;2.58;;;13.30;99.90;;;;;;1992627;70;21461;-80
2021/10/13 11:19:35;;;;;;;6.58;3.33;;;13.20;99.90;;;;;;1988578;70;21181;-80
2021/10/13 11:22:03;;;;;;;7.83;4.08;;;13.00;99.90;;;;;;1991277;70;21057;-79
2021/10/13 11:24:29;;;;;;;5.78;3.77;;;12.90;99.90;;;;;;1990552;70;21535;-79
2021/10/13 11:26:56;;;;;;;5.42;3.65;;;12.90;99.90;;;;;;1997450;70;21050;-79
2021/10/13 11:29:22;;;;;;;5.45;3.40;;;12.70;99.90;;;;;;2003485;70;21010;-79
2021/10/13 11:31:48;;;;;;;7.75;3.98;;;12.80;99.90;;;;;;1989735;70;21123;-81
2021/10/13 11:34:17;;;;;;;7.67;3.75;;;12.60;99.90;;;;;;1993800;70;21120;-81
2021/10/13 11:36:42;;;;;;;7.40;4.00;;;12.50;99.90;;;;;;2024322;70;21185;-79
2021/10/13 11:39:08;;;;;;;8.13;4.00;;;12.50;99.90;;;;;;1998635;70;21015;-78
2021/10/13 11:41:34;;;;;;;9.10;4.10;;;12.70;99.90;;;;;;2010706;70;21132;-78
2021/10/13 11:44:00;;;;;;;9.58;4.97;;;12.80;99.90;;;;;;1991542;70;21038;-78
2021/10/13 11:46:26;;;;;;;7.92;4.33;;;12.80;99.90;;;;;;2017902;70;21161;-79
2021/10/13 11:48:52;;;;;;;6.80;4.25;;;12.70;99.90;;;;;;1988068;70;21123;-79
2021/10/13 11:51:19;;;;;;;7.65;4.33;;;13.20;99.90;;;;;;2014255;70;21123;-78
2021/10/13 11:53:45;;;;;;;9.18;4.40;;;14.30;99.90;;;;;;1989946;70;21116;-79
2021/10/13 11:56:11;;;;;;;8.15;4.17;;;15.50;99.90;;;;;;1996676;71;21139;-79
2021/10/13 11:58:37;;;;;;;9.48;3.70;;;16.10;99.90;;;;;;2002904;70;21399;-78
2021/10/13 12:01:03;;;;;;;6.70;3.58;;;15.90;99.90;;;;;;1981255;70;21551;-79
2021/10/13 12:03:29;;;;;;;14.23;3.77;;;16.30;99.90;;;;;;2010463;70;21446;-78
2021/10/13 12:05:58;;;;;;;5.85;2.42;;;16.50;99.90;;;;;;2009670;70;21450;-78
2021/10/13 12:08:23;;;;;;;2.80;1.77;;;15.80;99.90;;;;;;1987168;70;21096;-79
2021/10/13 12:10:49;;;;;;;4.62;1.70;;;15.80;99.90;;;;;;1991756;70;21034;-79
2021/10/13 12:13:15;;;;;;;5.05;2.30;;;15.20;99.90;;;;;;1982180;70;21489;-80
2021/10/13 12:15:41;;;;;;;6.50;2.42;;;14.60;99.90;;;;;;1993307;70;21089;-79
2021/10/13 12:18:08;;;;;;;7.00;2.52;;;14.00;99.90;;;;;;2000229;70;21145;-79
2021/10/13 12:20:34;;;;;;;4.85;2.50;;;13.40;99.90;;;;;;1996217;70;21182;-79
2021/10/13 12:23:00;;;;;;;6.75;3.15;;;13.00;99.90;;;;;;1992310;70;21018;-79
2021/10/13 12:25:27;;;;;;;6.22;2.33;;;12.80;99.90;;;;;;2008062;70;21043;-79
2021/10/13 12:27:54;;;;;;;5.87;2.42;;;12.60;99.90;;;;;;2026262;70;21071;-79
2021/10/13 12:30:20;;;;;;;8.25;2.50;;;12.60;99.90;;;;;;2011483;70;21112;-79
2021/10/13 12:32:46;;;;;;;4.85;2.40;;;12.90;99.90;;;;;;2007865;70;21028;-79
2021/10/13 12:35:12;;;;;;;4.85;2.50;;;13.10;99.90;;;;;;1993836;70;21040;-79
2021/10/13 12:37:40;;;;;;;5.37;2.22;;;12.60;99.90;;;;;;1992274;70;21438;-80
2021/10/13 12:40:06;;;;;;;3.27;2.12;;;12.80;99.90;;;;;;2010827;70;21147;-79
2021/10/13 12:42:32;;;;;;;5.80;1.77;;;13.50;99.90;;;;;;2005549;70;21051;-79
2021/10/13 12:44:59;;;;;;;5.17;2.35;;;13.40;99.90;;;;;;2001481;70;21398;-77